Terminal Aerodrome Forecast
Issued by NWS

Home | Current Version | Previous Version | Text Only | Print | Product List | Glossary On
Versions: 1 2 3 4 5 6 7 8 9 10 11 12 13
000
FTUS46 KPDT 302320
TAFRDM
TAF
KRDM 302320Z 0100/0124 29012G22KT P6SM SCT100 SCT250
     FM010400 32007KT P6SM SCT120
     FM010800 17007KT P6SM SCT100
     FM011800 20012KT P6SM SCT100 BKN250=

USA.gov is the U.S. government's official web portal to all federal, state and local government web resources and services.